Time;durP1;ratioP1;P1;durP2;ratioP2;P2;SDS_P1;SDS_P2;PMS_P1;PMS_P2;Temp;Humidity;BMP_temperature;BMP_pressure;BME280_temperature;BME280_humidity;BME280_pressure;Samples;Min_cycle;Max_cycle;Signal;HPM_P1;HPM_P2
2022/06/13 00:01:09;;;;;;;4.85;2.97;;;;;;;23.47;45.50;100436.91;5346287;32;35028;-79
2022/06/13 00:04:12;;;;;;;6.53;3.25;;;;;;;23.09;46.67;100438.59;5325341;32;37070;-70
2022/06/13 00:07:14;;;;;;;5.87;3.12;;;;;;;23.45;45.65;100433.53;5364232;32;35635;-80
2022/06/13 00:10:16;;;;;;;10.10;3.58;;;;;;;24.50;43.55;100433.50;5347803;32;34881;-71
2022/06/13 00:13:18;;;;;;;5.60;3.10;;;;;;;23.94;44.59;100437.88;5341254;32;34116;-81
2022/06/13 00:16:21;;;;;;;5.07;3.08;;;;;;;24.01;44.67;100430.09;5340305;32;43191;-80
2022/06/13 00:19:23;;;;;;;6.32;3.35;;;;;;;24.73;43.36;100433.91;5364041;32;34553;-71
2022/06/13 00:22:25;;;;;;;8.63;3.53;;;;;;;24.62;43.13;100432.31;5344942;32;34558;-72
2022/06/13 00:25:27;;;;;;;4.93;2.95;;;;;;;23.97;44.72;100426.03;5343959;32;34368;-70
2022/06/13 00:28:30;;;;;;;5.75;3.35;;;;;;;22.93;47.97;100424.91;5358886;32;34774;-80
2022/06/13 00:31:32;;;;;;;10.00;3.47;;;;;;;22.76;48.68;100437.09;5347115;32;34795;-70
2022/06/13 00:34:34;;;;;;;6.72;3.42;;;;;;;22.55;49.34;100436.31;5366474;32;34039;-79
2022/06/13 00:37:36;;;;;;;6.32;3.67;;;;;;;23.07;48.19;100429.00;5344689;32;34648;-78
2022/06/13 00:40:38;;;;;;;6.37;3.50;;;;;;;23.57;46.72;100421.69;5343211;32;36292;-70
2022/06/13 00:43:42;;;;;;;7.62;3.40;;;;;;;23.80;46.09;100424.06;5352226;32;35217;-79
2022/06/13 00:46:44;;;;;;;5.22;3.12;;;;;;;23.41;46.94;100424.06;5344449;32;35609;-79
2022/06/13 00:49:47;;;;;;;6.68;3.30;;;;;;;23.56;46.47;100419.97;5363154;32;35060;-79
2022/06/13 00:52:53;;;;;;;6.32;3.00;;;;;;;23.59;46.28;100408.97;5344903;32;34984;-70
2022/06/13 00:56:00;;;;;;;5.55;3.33;;;;;;;23.28;46.25;100396.69;5362833;32;42548;-79
2022/06/13 00:59:12;;;;;;;7.05;3.12;;;;;;;22.76;48.14;100409.44;5347929;32;34549;-70
2022/06/13 01:02:14;;;;;;;6.47;3.17;;;;;;;22.74;48.08;100403.37;5351545;32;34921;-78
2022/06/13 01:05:20;;;;;;;5.10;3.35;;;;;;;22.75;48.23;100394.38;5357519;32;35444;-70
2022/06/13 01:08:25;;;;;;;7.00;3.53;;;;;;;22.42;49.22;100399.91;5347769;32;45282;-79
2022/06/13 01:11:27;;;;;;;5.10;3.00;;;;;;;23.12;47.47;100389.19;5361896;32;34547;-70
2022/06/13 01:14:57;;;;;;;4.87;3.10;;;;;;;22.13;50.21;100405.12;5331300;32;34690;-80
2022/06/13 01:18:02;;;;;;;5.72;3.50;;;;;;;22.77;48.62;100397.75;5359877;32;43219;-79
2022/06/13 01:21:28;;;;;;;6.07;3.20;;;;;;;22.58;49.12;100395.88;5354619;32;33825;-78
2022/06/13 01:24:49;;;;;;;6.12;3.28;;;;;;;22.02;51.05;100397.16;5344784;32;34870;-78
2022/06/13 01:28:07;;;;;;;5.00;3.30;;;;;;;23.01;48.11;100384.84;5361370;32;45042;-77
2022/06/13 01:31:17;;;;;;;6.82;3.12;;;;;;;22.06;50.71;100389.72;5347959;32;34821;-79
2022/06/13 01:34:22;;;;;;;6.30;3.85;;;;;;;22.24;50.41;100392.66;5346565;32;36369;-76
2022/06/13 01:37:42;;;;;;;7.70;3.50;;;;;;;22.12;50.44;100390.06;5364530;32;34790;-69
2022/06/13 01:41:02;;;;;;;4.82;3.37;;;;;;;21.76;51.74;100386.03;5331877;32;36189;-79
2022/06/13 01:44:39;;;;;;;7.45;3.50;;;;;;;21.32;53.37;100393.34;5362330;32;35397;-70
2022/06/13 01:48:23;;;;;;;5.62;3.42;;;;;;;22.19;50.87;100386.84;5250773;32;35216;-70
2022/06/13 01:51:34;;;;;;;;;;;;;;;22.29;49.91;100387.75;5272062;32;35826;-79
2022/06/13 01:54:41;;;;;;;5.47;3.33;;;;;;;21.97;51.27;100386.03;5362061;32;35462;-79
2022/06/13 01:57:52;;;;;;;7.32;3.60;;;;;;;22.29;50.41;100379.72;5349709;32;35336;-79
2022/06/13 02:01:02;;;;;;;5.60;3.25;;;;;;;22.18;50.34;100372.63;5344558;32;44637;-71
2022/06/13 02:04:17;;;;;;;5.55;3.35;;;;;;;22.63;49.21;100370.38;5365769;32;34180;-72
2022/06/13 02:07:27;;;;;;;5.20;3.50;;;;;;;21.65;51.91;100378.09;5344796;32;34374;-72
2022/06/13 02:10:35;;;;;;;6.50;3.53;;;;;;;22.26;50.36;100367.44;5359712;32;42363;-80
2022/06/13 02:13:40;;;;;;;7.28;3.17;;;;;;;21.54;52.46;100370.97;5323423;32;35528;-72
2022/06/13 02:16:49;;;;;;;5.53;3.35;;;;;;;22.02;51.14;100367.72;5346802;32;35034;-70
2022/06/13 02:20:06;;;;;;;5.60;3.55;;;;;;;21.48;52.66;100368.81;5364626;32;43372;-70
2022/06/13 02:23:16;;;;;;;6.07;3.37;;;;;;;21.71;51.43;100371.38;5333090;32;35082;-81
2022/06/13 02:26:26;;;;;;;6.28;3.55;;;;;;;21.30;52.20;100360.53;5357775;32;34960;-78
2022/06/13 02:29:42;;;;;;;7.53;3.58;;;;;;;21.22;53.22;100379.00;5346029;32;44484;-80
2022/06/13 02:32:54;;;;;;;9.18;3.87;;;;;;;21.19;53.27;100376.59;5344323;32;34782;-79
2022/06/13 02:36:05;;;;;;;5.18;3.40;;;;;;;21.41;52.75;100373.00;5362646;32;44570;-72
2022/06/13 02:39:16;;;;;;;7.30;3.60;;;;;;;21.44;52.60;100372.72;5329235;32;34547;-80
2022/06/13 02:42:35;;;;;;;5.95;3.37;;;;;;;21.10;53.92;100367.50;5358953;32;34776;-71
2022/06/13 02:45:59;;;;;;;7.47;3.37;;;;;;;21.30;53.82;100370.38;5349292;32;34582;-71
2022/06/13 02:49:06;;;;;;;5.37;3.50;;;;;;;21.29;53.85;100376.69;5333390;32;36120;-80
2022/06/13 02:52:28;;;;;;;7.32;3.30;;;;;;;21.13;54.06;100366.44;5361532;32;33620;-69
2022/06/13 02:55:40;;;;;;;6.45;3.50;;;;;;;21.33;53.67;100364.78;5346043;32;34424;-71
2022/06/13 02:58:54;;;;;;;7.03;3.67;;;;;;;21.93;52.45;100365.00;5356227;32;34981;-79
2022/06/13 03:01:59;;;;;;;9.55;4.53;;;;;;;22.46;50.79;100365.66;5357690;32;44710;-70
2022/06/13 03:05:10;;;;;;;7.35;3.67;;;;;;;21.20;54.12;100369.44;5343732;32;34052;-70
2022/06/13 03:08:30;;;;;;;9.45;4.00;;;;;;;21.67;53.15;100369.94;5361428;32;35302;-80
2022/06/13 03:11:47;;;;;;;8.73;3.95;;;;;;;22.32;50.64;100360.69;5348456;32;34502;-79
2022/06/13 03:15:04;;;;;;;10.40;3.90;;;;;;;20.98;54.62;100363.19;5351272;32;34821;-70
2022/06/13 03:18:15;;;;;;;6.53;3.65;;;;;;;20.73;55.85;100368.84;5362763;32;35470;-81
2022/06/13 03:21:32;;;;;;;7.40;3.45;;;;;;;20.95;54.60;100363.44;5345131;32;36004;-79
2022/06/13 03:24:42;;;;;;;10.25;4.50;;;;;;;20.79;54.73;100360.34;5356452;32;34118;-80
2022/06/13 03:27:50;;;;;;;6.15;3.60;;;;;;;21.00;54.08;100353.25;5346412;32;36002;-70
2022/06/13 03:31:07;;;;;;;9.75;4.07;;;;;;;20.92;54.07;100369.03;5345662;32;45107;-79
2022/06/13 03:34:14;;;;;;;8.10;3.72;;;;;;;20.93;53.33;100364.53;5347971;32;35155;-71
2022/06/13 03:37:42;;;;;;;8.35;3.65;;;;;;;20.69;54.48;100362.09;5346830;32;35283;-79
2022/06/13 03:40:48;;;;;;;9.82;4.12;;;;;;;22.04;50.25;100360.41;5335383;32;35799;-70
2022/06/13 03:44:09;;;;;;;6.70;4.10;;;;;;;21.52;51.96;100361.41;5344358;32;44439;-81
2022/06/13 03:47:22;;;;;;;5.35;3.58;;;;;;;22.09;50.44;100360.91;5343936;32;34286;-81
2022/06/13 03:50:29;;;;;;;8.65;3.78;;;;;;;21.67;51.15;100353.88;5359809;32;47800;-77
2022/06/13 03:53:39;;;;;;;6.97;4.07;;;;;;;21.34;52.20;100353.94;5344717;32;34718;-72
2022/06/13 03:56:58;;;;;;;6.30;3.70;;;;;;;21.34;52.14;100347.75;5359749;32;35226;-79
2022/06/13 04:00:08;;;;;;;7.12;3.40;;;;;;;22.53;48.97;100356.09;5351239;32;36571;-70
2022/06/13 04:03:11;;;;;;;6.47;3.40;;;;;;;22.19;49.52;100349.37;5346140;32;34131;-69
2022/06/13 04:06:31;;;;;;;11.68;3.87;;;;;;;21.68;51.59;100361.78;5359507;32;34742;-70
2022/06/13 04:09:40;;;;;;;8.50;3.75;;;;;;;21.65;52.09;100366.56;5345778;32;32803;-79
2022/06/13 04:12:58;;;;;;;7.75;4.05;;;;;;;21.90;51.37;100355.44;5352375;32;34565;-79
2022/06/13 04:16:17;;;;;;;9.93;4.07;;;;;;;21.79;51.27;100337.62;5356004;32;34012;-80
2022/06/13 04:19:28;;;;;;;11.25;3.90;;;;;;;22.21;49.19;100353.59;5346468;32;35181;-70
2022/06/13 04:22:48;;;;;;;10.35;4.03;;;;;;;22.25;49.04;100344.31;5358122;32;34437;-79
2022/06/13 04:26:05;;;;;;;12.85;3.67;;;;;;;23.19;46.30;100337.59;5344690;32;44126;-79
2022/06/13 04:29:18;;;;;;;7.28;3.55;;;;;;;23.45;44.82;100342.34;5350705;32;36246;-72
2022/06/13 04:32:25;;;;;;;5.37;3.22;;;;;;;23.94;43.72;100354.66;5363271;32;44833;-81
2022/06/13 04:35:29;;;;;;;8.48;3.97;;;;;;;24.36;43.18;100356.94;5347712;32;34819;-70
2022/06/13 04:38:32;;;;;;;7.40;3.62;;;;;;;24.42;43.15;100359.03;5349346;32;34830;-81
2022/06/13 04:41:37;;;;;;;6.22;3.37;;;;;;;24.81;42.05;100354.25;5342570;32;35150;-71
2022/06/13 04:44:40;;;;;;;7.60;4.40;;;;;;;25.70;40.15;100364.12;5357613;32;34850;-70
2022/06/13 04:47:43;;;;;;;8.00;3.45;;;;;;;26.24;38.85;100354.00;5351510;32;34821;-71
2022/06/13 04:50:46;;;;;;;;;;;;;;;24.82;42.00;100347.03;5344513;32;34876;-80
2022/06/13 04:54:09;;;;;;;9.18;3.45;;;;;;;26.34;38.92;100341.25;5362754;32;37310;-80
2022/06/13 04:57:13;;;;;;;12.25;4.43;;;;;;;25.35;41.10;100355.09;5349554;32;35034;-79
2022/06/13 05:00:16;;;;;;;12.52;5.97;;;;;;;26.17;39.04;100345.72;5361535;32;36643;-79
2022/06/13 05:03:23;;;;;;;6.65;3.80;;;;;;;26.18;38.87;100351.94;5339779;32;34845;-80
2022/06/13 05:06:37;;;;;;;8.52;4.40;;;;;;;25.62;40.39;100350.56;5344323;32;44396;-79
2022/06/13 05:10:03;;;;;;;11.45;4.40;;;;;;;26.85;37.73;100344.75;5360967;32;34348;-71
2022/06/13 05:13:05;;;;;;;14.85;4.28;;;;;;;26.65;38.08;100346.06;5346453;32;33695;-73
2022/06/13 05:16:34;;;;;;;7.53;3.87;;;;;;;27.85;36.13;100334.66;5347993;32;34931;-70
2022/06/13 05:19:39;;;;;;;6.45;3.72;;;;;;;27.29;37.07;100336.38;5319020;32;34824;-82
2022/06/13 05:23:00;;;;;;;8.32;3.65;;;;;;;28.49;34.78;100324.63;5342328;32;34305;-79
2022/06/13 05:26:03;;;;;;;7.05;3.47;;;;;;;28.10;35.77;100332.72;5357653;32;34902;-72
2022/06/13 05:29:08;;;;;;;10.15;3.70;;;;;;;27.58;37.26;100333.19;5346832;32;34381;-81
2022/06/13 05:32:13;;;;;;;6.97;3.40;;;;;;;29.20;33.90;100332.63;5360290;32;34342;-72
2022/06/13 05:35:27;;;;;;;8.50;2.80;;;;;;;28.98;34.23;100327.06;5346364;32;34680;-80
2022/06/13 05:38:46;;;;;;;7.75;2.70;;;;;;;29.40;32.08;100333.78;5335089;32;33513;-71
2022/06/13 05:41:48;;;;;;;7.65;3.30;;;;;;;28.31;33.50;100335.69;5342275;32;34873;-69
2022/06/13 05:44:50;;;;;;;5.95;2.90;;;;;;;28.25;33.58;100340.94;5343162;32;45345;-74
2022/06/13 05:47:53;;;;;;;7.62;2.80;;;;;;;27.73;33.67;100338.72;5370023;32;34651;-73
2022/06/13 05:50:55;;;;;;;9.35;3.28;;;;;;;28.03;33.36;100343.38;5348722;32;35329;-73
2022/06/13 05:53:58;;;;;;;7.15;2.70;;;;;;;29.17;31.67;100333.81;5335497;32;34313;-72
2022/06/13 05:57:01;;;;;;;9.77;3.00;;;;;;;28.90;31.47;100334.34;5357722;32;34247;-73
2022/06/13 06:00:05;;;;;;;18.95;11.45;;;;;;;29.51;30.98;100341.50;5647551;27;35208;-76
2022/06/13 06:03:07;;;;;;;10.90;3.10;;;;;;;28.83;31.96;100326.09;5348686;32;34295;-72
2022/06/13 06:06:12;;;;;;;5.03;2.60;;;;;;;29.68;30.55;100334.06;5343264;32;34594;-75
2022/06/13 06:09:14;;;;;;;7.53;3.17;;;;;;;30.34;28.52;100332.31;5354696;32;35416;-73
2022/06/13 06:12:19;;;;;;;17.15;4.87;;;;;;;32.02;26.25;100334.50;5336594;32;35280;-74
2022/06/13 06:15:22;;;;;;;7.05;2.72;;;;;;;30.56;28.30;100335.87;5342698;32;34101;-78
2022/06/13 06:18:28;;;;;;;8.63;2.75;;;;;;;30.42;28.55;100343.03;5347488;32;34878;-77
2022/06/13 06:21:31;;;;;;;10.57;2.87;;;;;;;30.51;27.83;100334.78;5344030;32;44574;-72
2022/06/13 06:24:33;;;;;;;3.85;2.72;;;;;;;31.22;26.71;100331.16;5353402;32;34252;-72
2022/06/13 06:27:36;;;;;;;6.90;2.58;;;;;;;32.49;25.55;100324.69;5344927;32;34296;-72
2022/06/13 06:30:39;;;;;;;5.22;2.47;;;;;;;31.13;27.12;100326.91;5348725;32;35195;-73
2022/06/13 06:33:44;;;;;;;6.57;2.60;;;;;;;31.18;27.27;100329.88;5350212;32;36152;-78
2022/06/13 06:36:47;;;;;;;4.68;2.33;;;;;;;31.03;27.48;100331.81;5341430;32;33768;-71
2022/06/13 06:39:49;;;;;;;6.62;2.60;;;;;;;31.68;26.47;100336.13;5343874;32;34294;-73
2022/06/13 06:42:52;;;;;;;4.32;2.30;;;;;;;30.23;27.93;100345.50;5347538;32;36543;-88
2022/06/13 06:45:56;;;;;;;6.28;2.40;;;;;;;33.05;24.35;100327.16;5345658;32;34700;-74
2022/06/13 06:48:59;;;;;;;4.28;2.35;;;;;;;33.02;24.12;100327.56;5343101;32;44569;-86
2022/06/13 06:52:02;;;;;;;4.05;2.40;;;;;;;34.33;22.95;100324.87;5349705;32;37002;-74
2022/06/13 07:01:47;;;;;;;4.85;2.60;;;;;;;31.92;26.02;100320.44;5347518;32;34325;-74
2022/06/13 07:04:52;;;;;;;4.35;2.50;;;;;;;33.20;24.23;100307.87;5343225;32;34324;-71
2022/06/13 07:07:54;;;;;;;6.53;2.20;;;;;;;31.92;25.83;100323.16;5345699;32;34086;-75
2022/06/13 07:11:53;;;;;;;7.43;3.78;;;;;;;32.30;24.64;100320.84;5351417;32;35414;-78
2022/06/13 07:14:29;;;;;;;5.12;1.98;;;;;;;34.69;21.60;100316.97;5342569;32;35718;-73
2022/06/13 07:17:32;;;;;;;9.98;2.70;;;;;;;34.05;21.99;100317.03;5355081;32;44435;-73
2022/06/13 07:20:35;;;;;;;5.30;2.20;;;;;;;33.74;22.40;100318.53;5348189;32;35528;-77
2022/06/13 07:23:37;;;;;;;5.18;2.33;;;;;;;34.35;21.69;100320.06;5354695;32;35598;-75
2022/06/13 07:26:40;;;;;;;5.90;2.30;;;;;;;34.82;21.42;100313.31;5344575;32;33676;-73
2022/06/13 07:29:43;;;;;;;7.40;2.85;;;;;;;37.04;18.93;100302.31;5340530;32;34272;-72
2022/06/13 07:32:45;;;;;;;3.75;2.28;;;;;;;33.18;23.33;100308.09;5341817;32;34736;-77
2022/06/13 07:35:47;;;;;;;8.30;2.75;;;;;;;34.16;22.39;100308.19;5345111;32;34422;-75
2022/06/13 07:38:49;;;;;;;5.93;2.10;;;;;;;33.65;22.94;100303.47;5332237;32;332956;-69
2022/06/13 07:41:53;;;;;;;8.10;2.45;;;;;;;35.31;19.89;100299.94;5318757;32;35382;-70
2022/06/13 07:44:55;;;;;;;5.43;2.10;;;;;;;34.80;20.68;100299.06;5347535;32;35148;-69
2022/06/13 07:47:57;;;;;;;9.13;2.00;;;;;;;36.83;17.53;100298.16;5344367;32;43768;-74
2022/06/13 07:51:02;;;;;;;4.90;2.10;;;;;;;34.16;20.40;100308.19;5345353;32;35911;-72
2022/06/13 07:54:05;;;;;;;11.32;3.00;;;;;;;33.88;20.30;100305.75;5353288;32;35308;-74
2022/06/13 07:57:08;;;;;;;3.37;1.73;;;;;;;34.10;20.08;100309.03;5345139;32;35435;-75
2022/06/13 08:00:21;;;;;;;5.32;2.95;;;;;;;36.95;15.79;100311.91;5361966;32;34240;-70
2022/06/13 08:03:28;;;;;;;6.55;2.40;;;;;;;37.07;16.50;100304.56;5347646;32;35894;-77
2022/06/13 08:06:31;;;;;;;4.03;2.08;;;;;;;34.47;19.62;100305.56;5339565;32;44360;-71
2022/06/13 08:09:33;;;;;;;7.28;2.45;;;;;;;36.96;17.62;100291.66;5353883;32;34010;-69
2022/06/13 08:12:35;;;;;;;5.07;2.20;;;;;;;32.79;22.23;100296.09;5341383;32;34179;-68
2022/06/13 08:15:38;;;;;;;4.30;2.10;;;;;;;35.42;19.39;100280.94;5352016;32;34255;-69
2022/06/13 08:18:42;;;;;;;6.65;2.08;;;;;;;37.38;17.20;100279.59;5347693;32;35219;-71
2022/06/13 08:21:44;;;;;;;8.00;2.20;;;;;;;36.83;18.16;100281.72;5336092;32;36654;-72
2022/06/13 08:24:47;;;;;;;4.03;2.10;;;;;;;36.60;18.30;100277.87;5332965;32;35810;-77
2022/06/13 08:27:49;;;;;;;8.50;2.47;;;;;;;37.02;18.08;100274.28;5333374;32;34324;-81
2022/06/13 08:31:09;;;;;;;3.65;2.00;;;;;;;36.66;18.59;100273.38;5345615;32;34138;-71
2022/06/13 08:34:11;;;;;;;8.48;2.80;;;;;;;38.56;16.66;100273.84;5346615;32;34091;-69
2022/06/13 08:37:16;;;;;;;4.78;2.10;;;;;;;36.95;18.36;100268.94;5353483;32;34637;-68
2022/06/13 08:40:19;;;;;;;6.87;2.17;;;;;;;38.98;16.23;100266.12;5321663;32;34037;-72
2022/06/13 08:44:00;;;;;;;6.30;2.30;;;;;;;37.19;18.22;100275.28;5335165;32;35241;-72
2022/06/13 08:47:18;;;;;;;4.85;2.12;;;;;;;37.35;18.11;100274.56;5357018;32;34860;-70
2022/06/13 08:50:33;;;;;;;4.97;2.50;;;;;;;38.90;15.84;100269.25;5329299;32;35431;-77
2022/06/13 08:53:43;;;;;;;4.90;1.87;;;;;;;36.60;18.73;100268.84;5354548;32;44416;-74
2022/06/13 08:56:46;;;;;;;3.47;2.10;;;;;;;38.31;16.75;100269.53;5345629;32;35664;-68
2022/06/13 08:59:55;;;;;;;5.03;1.92;;;;;;;38.11;16.51;100258.97;5345764;32;34290;-69
2022/06/13 09:03:06;;;;;;;4.32;2.17;;;;;;;37.12;17.85;100258.13;5338667;32;46163;-75
2022/06/13 09:06:17;;;;;;;5.35;2.58;;;;;;;35.33;19.81;100260.41;5346124;32;33561;-69
2022/06/13 09:09:38;;;;;;;3.55;2.20;;;;;;;36.01;19.73;100251.31;5356074;32;34050;-75
2022/06/13 09:13:04;;;;;;;4.25;2.10;;;;;;;36.53;18.80;100249.78;5353476;32;35296;-70
2022/06/13 09:16:11;;;;;;;3.80;2.08;;;;;;;34.96;20.62;100238.47;5348511;32;45030;-69
2022/06/13 09:19:18;;;;;;;8.80;2.70;;;;;;;39.62;15.69;100239.09;5353076;32;35099;-69
2022/06/13 09:22:45;;;;;;;6.47;2.80;;;;;;;36.66;18.82;100239.69;5339446;32;34012;-75
2022/06/13 09:26:11;;;;;;;2.80;2.17;;;;;;;35.28;20.22;100236.47;5339787;32;34391;-73
2022/06/13 09:29:22;;;;;;;3.92;2.22;;;;;;;36.98;18.24;100227.37;5355753;32;34262;-72
2022/06/13 09:32:40;;;;;;;7.53;2.70;;;;;;;37.38;18.05;100215.72;5324130;32;36896;-75
2022/06/13 09:35:47;;;;;;;6.28;2.70;;;;;;;37.87;18.64;100211.62;5356598;32;34196;-74
2022/06/13 09:39:10;;;;;;;3.15;2.20;;;;;;;37.69;17.66;100214.50;5336661;32;34422;-77
2022/06/13 09:42:13;;;;;;;5.53;2.03;;;;;;;36.81;18.54;100207.19;5317522;32;35479;-73
2022/06/13 09:45:28;;;;;;;3.45;2.12;;;;;;;38.66;16.17;100208.97;5352801;32;34243;-75
2022/06/13 09:48:39;;;;;;;3.33;2.10;;;;;;;37.62;16.92;100211.88;5342975;32;45105;-72
2022/06/13 09:51:53;;;;;;;;;;;;;;;36.76;17.98;100207.06;5351678;32;34231;-69
2022/06/13 09:55:04;;;;;;;4.68;2.30;;;;;;;35.51;18.86;100200.34;5348387;32;43675;-68
2022/06/13 09:58:21;;;;;;;3.17;1.90;;;;;;;36.91;17.95;100196.53;5341275;32;34097;-70
2022/06/13 10:01:43;;;;;;;4.15;2.25;;;;;;;37.58;16.16;100199.72;5353604;32;35666;-76
2022/06/13 10:05:17;;;;;;;1.77;1.60;;;;;;;37.10;17.14;100192.63;5345721;32;34243;-77
2022/06/13 10:08:41;;;;;;;4.60;2.20;;;;;;;37.80;16.41;100177.97;5347073;32;35640;-76
2022/06/13 10:12:26;;;;;;;8.52;2.40;;;;;;;35.18;19.32;100176.09;5357488;32;35511;-69
2022/06/13 10:16:04;;;;;;;6.10;2.03;;;;;;;36.04;18.46;100177.81;5320360;32;34674;-70
2022/06/13 10:19:13;;;;;;;5.30;2.00;;;;;;;39.22;13.84;100165.94;5321799;32;45949;-75
2022/06/13 10:22:44;;;;;;;4.93;2.15;;;;;;;36.77;16.50;100164.94;5355674;32;34743;-74
2022/06/13 10:26:08;;;;;;;7.90;2.17;;;;;;;38.75;15.04;100162.72;5342735;32;35594;-75
2022/06/13 10:29:26;;;;;;;8.40;2.25;;;;;;;40.43;13.40;100161.28;5349307;32;35548;-73
2022/06/13 10:32:46;;;;;;;2.87;1.85;;;;;;;40.26;13.91;100156.75;5343667;32;45428;-83
2022/06/13 10:35:56;;;;;;;4.60;2.17;;;;;;;40.58;13.81;100148.53;5343881;32;34120;-77
2022/06/13 10:39:05;;;;;;;3.90;2.30;;;;;;;36.45;17.70;100150.72;5344094;32;44572;-75
2022/06/13 10:42:12;;;;;;;3.67;2.10;;;;;;;39.23;15.64;100150.28;5329990;32;35074;-69
2022/06/13 10:45:16;;;;;;;5.35;2.12;;;;;;;39.99;14.55;100153.13;5348623;32;33181;-81
2022/06/13 10:48:50;;;;;;;5.43;2.20;;;;;;;38.47;16.24;100141.66;5354259;32;34199;-72
2022/06/13 10:51:56;;;;;;;3.65;2.03;;;;;;;40.03;14.98;100138.63;5307166;32;34308;-70
2022/06/13 10:55:08;;;;;;;5.28;2.80;;;;;;;39.71;15.24;100135.78;5351494;32;44207;-69
2022/06/13 10:58:40;;;;;;;3.40;2.03;;;;;;;40.03;15.32;100130.38;5341617;32;34069;-67
2022/06/13 11:02:01;;;;;;;4.62;2.25;;;;;;;36.77;17.97;100130.16;5335525;32;34195;-69
2022/06/13 11:05:17;;;;;;;6.50;2.30;;;;;;;35.78;19.27;100134.41;5353890;32;44186;-70
2022/06/13 11:08:21;;;;;;;4.45;2.40;;;;;;;36.24;19.12;100127.47;5340833;32;35458;-69
2022/06/13 11:11:37;;;;;;;3.42;1.92;;;;;;;38.93;16.30;100115.75;5347144;32;44653;-67
2022/06/13 11:22:37;;;;;;;3.95;2.15;;;;;;;37.40;17.60;100117.66;5352668;32;33966;-68
2022/06/13 11:24:58;;;;;;;5.85;2.30;;;;;;;35.44;19.27;100093.03;5346045;32;35309;-66
2022/06/13 11:28:05;;;;;;;3.75;2.40;;;;;;;36.60;18.12;100097.22;5339186;32;44335;-64
2022/06/13 11:31:21;;;;;;;6.28;2.60;;;;;;;35.68;18.58;100093.97;5352936;32;34054;-70
2022/06/13 11:34:32;;;;;;;4.55;2.05;;;;;;;35.22;19.47;100078.13;5344678;32;34329;-68
2022/06/13 11:37:35;;;;;;;5.37;2.53;;;;;;;35.60;18.86;100074.31;5355263;32;44370;-69
2022/06/13 11:40:37;;;;;;;5.15;3.05;;;;;;;35.26;20.00;100073.88;5327658;32;34222;-67
2022/06/13 11:44:00;;;;;;;9.52;2.97;;;;;;;33.11;23.36;100081.28;5351059;32;34636;-63
2022/06/13 11:47:03;;;;;;;5.57;2.50;;;;;;;33.68;22.94;100066.81;5345709;32;44473;-68
2022/06/13 11:50:25;;;;;;;4.65;2.42;;;;;;;32.33;24.58;100079.28;5350701;32;35218;-67
2022/06/13 11:53:37;;;;;;;6.37;2.60;;;;;;;32.47;24.20;100071.13;5342486;32;32889;-70
2022/06/13 11:56:39;;;;;;;;;;;;;;;32.04;25.47;100076.91;5340389;32;34452;-72
2022/06/13 11:59:50;;;;;;;9.40;3.30;;;;;;;32.11;26.20;100083.19;5347079;32;34696;-70
2022/06/13 12:03:05;;;;;;;6.10;3.03;;;;;;;31.77;27.40;100085.00;5359234;32;35717;-70
2022/06/13 12:06:11;;;;;;;4.80;3.12;;;;;;;31.24;28.54;100084.81;5344454;32;46403;-72
2022/06/13 12:09:23;;;;;;;7.50;2.95;;;;;;;32.36;27.08;100088.91;5360273;32;35949;-76
2022/06/13 12:12:42;;;;;;;5.47;3.10;;;;;;;32.18;27.59;100086.75;5345736;32;35885;-75
2022/06/13 12:15:56;;;;;;;6.05;2.92;;;;;;;31.92;27.68;100078.56;5344359;32;34154;-66
2022/06/13 12:19:30;;;;;;;5.75;2.90;;;;;;;32.30;26.87;100068.78;5360499;32;44642;-67
2022/06/13 12:22:42;;;;;;;4.85;3.15;;;;;;;32.43;26.41;100067.13;5326717;32;44568;-68
2022/06/13 12:25:56;;;;;;;4.72;3.03;;;;;;;33.12;25.55;100051.13;5351142;32;32748;-65
2022/06/13 12:29:32;;;;;;;4.68;2.65;;;;;;;32.14;26.72;100052.91;5352460;32;45244;-68
2022/06/13 12:32:36;;;;;;;6.40;2.75;;;;;;;32.24;25.78;100047.03;5344415;32;45070;-69
2022/06/13 12:36:18;;;;;;;12.15;4.40;;;;;;;31.47;27.42;100049.16;5355555;32;34289;-67
2022/06/13 12:39:26;;;;;;;6.22;3.10;;;;;;;32.32;27.13;100053.06;5319289;32;34183;-75
2022/06/13 12:42:37;;;;;;;10.65;3.58;;;;;;;32.33;25.62;100045.78;5337676;32;46689;-76
2022/06/13 12:46:08;;;;;;;5.28;3.58;;;;;;;32.81;26.79;100042.81;5356896;32;35502;-75
2022/06/13 12:49:16;;;;;;;19.95;4.28;;;;;;;32.68;25.22;100038.22;5375003;27;34298;-88
2022/06/13 12:52:22;;;;;;;10.25;2.90;;;;;;;33.41;25.17;100027.13;5387371;32;34313;-91
2022/06/13 12:56:17;;;;;;;4.62;3.08;;;;;;;32.98;24.42;100032.34;5371495;32;43582;-93
2022/06/13 12:59:54;;;;;;;9.85;3.20;;;;;;;32.63;24.22;100013.53;5352221;32;33533;-88
2022/06/13 13:03:34;;;;;;;9.30;2.70;;;;;;;32.78;24.25;100014.16;5365664;32;36072;-95
2022/06/13 13:07:16;;;;;;;;;;;;;;;;;;;;;
2022/06/13 13:10:49;;;;;;;9.85;5.75;;;;;;;32.01;24.52;100017.53;5341464;32;34294;-91
2022/06/13 13:14:44;;;;;;;5.18;3.50;;;;;;;33.36;23.75;100022.31;5353588;32;44899;-95
2022/06/13 13:17:57;;;;;;;8.65;4.00;;;;;;;32.96;28.01;100034.41;5370979;32;33184;-94
2022/06/13 13:21:14;;;;;;;6.97;3.90;;;;;;;31.84;31.08;100041.56;5319863;28;303021;-64
2022/06/13 13:24:25;;;;;;;8.05;4.00;;;;;;;32.56;30.28;100023.59;5315864;32;35209;-71
2022/06/13 13:27:39;;;;;;;13.65;5.32;;;;;;;31.75;31.57;100030.03;5355052;32;34243;-70
2022/06/13 13:30:53;;;;;;;10.05;4.32;;;;;;;31.63;31.86;100026.25;5342250;32;34138;-66
2022/06/13 13:34:09;;;;;;;6.50;4.05;;;;;;;31.48;32.82;100041.84;5347025;32;34834;-75
2022/06/13 13:37:29;;;;;;;7.85;4.50;;;;;;;30.76;34.29;100043.16;5345931;32;33141;-67
2022/06/13 13:40:45;;;;;;;8.40;4.25;;;;;;;31.28;33.44;100042.62;5315702;32;42734;-69
2022/06/13 13:43:52;;;;;;;8.55;4.97;;;;;;;29.75;35.23;100057.87;5341002;32;34222;-69
2022/06/13 13:47:21;;;;;;;9.82;4.28;;;;;;;30.06;34.33;100038.59;5342386;32;34044;-65
2022/06/13 13:50:26;;;;;;;8.57;4.30;;;;;;;29.57;34.85;100042.94;5348693;32;34395;-65
2022/06/13 13:53:33;;;;;;;7.28;3.80;;;;;;;29.37;34.92;100047.25;5342429;32;44561;-64
2022/06/13 13:56:51;;;;;;;7.57;4.65;;;;;;;30.01;32.75;100036.47;5339624;32;34103;-67
2022/06/13 14:00:03;;;;;;;8.70;4.10;;;;;;;30.16;32.09;100045.41;5352575;32;34043;-67
2022/06/13 14:03:29;;;;;;;4.93;3.53;;;;;;;29.83;32.85;100045.06;5339528;32;44752;-71
2022/06/13 14:07:10;;;;;;;6.97;3.92;;;;;;;29.79;32.12;100040.22;5344436;32;44510;-64
2022/06/13 14:10:15;;;;;;;5.60;3.67;;;;;;;29.39;32.66;100018.09;5344518;32;33966;-70
2022/06/13 14:13:17;;;;;;;8.95;3.80;;;;;;;29.98;32.54;100025.19;5333243;32;36106;-70
2022/06/13 14:16:23;;;;;;;5.80;3.92;;;;;;;29.81;33.34;100021.91;5352683;32;36334;-73
2022/06/13 14:19:30;;;;;;;8.98;3.87;;;;;;;30.37;32.77;100027.44;5343459;32;34831;-69
2022/06/13 14:22:44;;;;;;;6.03;3.78;;;;;;;30.63;32.19;100022.19;5345213;32;44380;-70
2022/06/13 14:25:47;;;;;;;8.23;3.83;;;;;;;30.35;32.96;100024.91;5351667;32;34089;-71
2022/06/13 14:28:53;;;;;;;6.85;3.80;;;;;;;29.68;34.45;100022.59;5339700;32;34998;-67
2022/06/13 14:32:07;;;;;;;14.07;4.70;;;;;;;29.32;35.73;100023.44;5352062;32;33775;-65
2022/06/13 14:35:46;;;;;;;7.10;3.97;;;;;;;29.81;34.47;100017.31;5336551;32;34327;-67
2022/06/13 14:38:52;;;;;;;8.40;3.62;;;;;;;29.69;34.66;100013.47;5335537;32;35631;-70
2022/06/13 14:42:22;;;;;;;6.05;4.37;;;;;;;30.11;33.61;100018.06;5342835;32;34132;-71
2022/06/13 14:45:36;;;;;;;6.95;3.60;;;;;;;29.85;33.94;100017.78;5337142;32;35390;-70
2022/06/13 14:48:58;;;;;;;5.20;3.15;;;;;;;29.14;34.92;100010.31;5357603;32;35532;-73
2022/06/13 14:52:13;;;;;;;6.53;3.00;;;;;;;29.51;34.67;100016.63;5334301;32;44460;-67
2022/06/13 14:55:16;;;;;;;5.68;2.95;;;;;;;29.55;34.42;100025.19;5344106;32;34180;-76
2022/06/13 14:58:47;;;;;;;4.72;2.60;;;;;;;29.61;33.23;100021.69;5344175;32;34139;-73
2022/06/13 15:02:25;;;;;;;5.22;2.80;;;;;;;28.84;34.36;100032.97;5342196;32;34272;-75
2022/06/13 15:05:37;;;;;;;5.95;2.60;;;;;;;28.35;35.04;100044.31;5345925;32;35259;-75
2022/06/13 15:09:04;;;;;;;4.85;2.65;;;;;;;29.06;33.64;100037.50;5357035;32;34238;-68